createdAt,value
2018-06-15T00:03:46.779Z,69.44
2018-06-15T00:08:49.813Z,69.62
2018-06-15T00:13:52.860Z,69.85
2018-06-15T00:18:55.854Z,69.25
2018-06-15T00:23:58.908Z,69.29
2018-06-15T00:29:02.043Z,69.87
2018-06-15T00:34:05.114Z,70.43
2018-06-15T00:39:10.741Z,70.26
2018-06-15T00:44:13.789Z,70.58
2018-06-15T00:49:16.847Z,69.96
2018-06-15T00:54:19.890Z,69.83
2018-06-15T00:59:22.953Z,69.50
2018-06-15T01:04:25.961Z,69.89
2018-06-15T01:09:29.017Z,70.40
2018-06-15T01:14:32.066Z,70.43
2018-06-15T01:19:35.985Z,70.20
2018-06-15T01:24:40.042Z,69.87
2018-06-15T01:29:43.102Z,70.55
2018-06-15T01:34:46.113Z,70.51
2018-06-15T01:39:49.175Z,69.98
2018-06-15T01:44:52.213Z,69.85
2018-06-15T01:49:55.185Z,69.87
2018-06-15T01:54:58.240Z,69.95
2018-06-15T02:00:01.274Z,70.26
2018-06-15T02:05:04.366Z,69.71
2018-06-15T02:10:07.437Z,69.78
2018-06-15T02:15:10.485Z,69.65
2018-06-15T02:20:13.557Z,69.82
2018-06-15T02:25:16.604Z,70.07
2018-06-15T02:30:19.643Z,69.72
2018-06-15T02:35:22.648Z,69.87
2018-06-15T02:40:25.765Z,70.22
2018-06-15T02:45:28.832Z,69.87
2018-06-15T02:50:31.844Z,70.04
2018-06-15T02:55:34.925Z,70.22
2018-06-15T03:00:37.999Z,70.05
2018-06-15T03:05:41.190Z,70.56
2018-06-15T03:10:44.279Z,70.20
2018-06-15T03:15:47.301Z,70.05
2018-06-15T03:20:50.363Z,70.22
2018-06-15T03:25:53.380Z,70.10
2018-06-15T03:30:56.478Z,70.01
2018-06-15T03:35:59.678Z,70.09
2018-06-15T03:41:02.733Z,70.17
2018-06-15T03:46:05.740Z,70.60
2018-06-15T03:51:08.798Z,70.18
2018-06-15T03:56:11.861Z,70.50
2018-06-15T04:01:14.854Z,70.99
2018-06-15T04:06:17.850Z,71.29
2018-06-15T04:11:20.834Z,71.51
2018-06-15T04:16:23.846Z,72.12
2018-06-15T04:21:26.841Z,71.58
2018-06-15T04:26:29.865Z,71.08
2018-06-15T04:31:32.925Z,70.95
2018-06-15T04:36:35.929Z,70.07
2018-06-15T04:41:39.038Z,70.09
2018-06-15T04:46:42.126Z,69.88
2018-06-15T04:51:45.118Z,69.73
2018-06-15T04:56:48.122Z,69.34
2018-06-15T05:01:51.134Z,68.27
2018-06-15T05:06:54.113Z,67.77
2018-06-15T05:11:57.072Z,67.59
2018-06-15T05:17:00.166Z,66.76
2018-06-15T05:22:03.158Z,66.08
2018-06-15T05:27:06.417Z,65.08
2018-06-15T05:32:09.401Z,62.51
2018-06-15T05:37:12.419Z,60.79
2018-06-15T05:42:15.437Z,60.62
2018-06-15T05:47:18.442Z,60.50
2018-06-15T05:52:21.450Z,60.09
2018-06-15T05:57:24.437Z,59.83
2018-06-15T06:02:27.438Z,60.27
2018-06-15T06:07:30.425Z,59.41
2018-06-15T06:12:33.421Z,58.61
2018-06-15T06:17:36.415Z,58.44
2018-06-15T06:22:39.597Z,57.58
2018-06-15T06:27:42.639Z,56.52
2018-06-15T06:32:45.691Z,55.90
2018-06-15T06:37:48.715Z,55.94
2018-06-15T06:42:51.690Z,55.94
2018-06-15T06:47:54.685Z,55.73
2018-06-15T06:52:57.726Z,55.64
2018-06-15T06:58:00.727Z,55.03
2018-06-15T07:03:03.732Z,54.28
2018-06-15T07:08:06.738Z,53.38
2018-06-15T07:13:09.720Z,52.57
2018-06-15T07:18:12.984Z,52.07
2018-06-15T07:23:15.993Z,51.46
2018-06-15T07:28:19.029Z,50.85
2018-06-15T07:33:22.087Z,49.71
2018-06-15T07:38:25.081Z,50.32
2018-06-15T07:43:28.061Z,49.21
2018-06-15T07:48:31.095Z,49.00
2018-06-15T07:53:34.125Z,50.10
2018-06-15T07:58:37.101Z,50.75
2018-06-15T08:03:43.611Z,50.73
2018-06-15T08:08:46.614Z,50.25
2018-06-15T08:13:49.607Z,48.31
2018-06-15T08:18:52.706Z,47.84
2018-06-15T08:23:55.844Z,45.12
2018-06-15T08:28:58.828Z,44.82
2018-06-15T08:34:01.861Z,43.43
2018-06-15T08:39:08.826Z,43.51
2018-06-15T08:44:11.846Z,41.52
2018-06-15T08:49:14.829Z,42.81
2018-06-15T08:54:17.874Z,40.28
2018-06-15T08:59:20.857Z,41.71
2018-06-15T09:04:23.937Z,41.04
2018-06-15T09:09:26.965Z,40.09
2018-06-15T09:14:30.008Z,38.78
2018-06-15T09:19:33.014Z,40.89
2018-06-15T09:24:36.018Z,41.38
2018-06-15T09:29:39.017Z,40.88
2018-06-15T09:34:42.023Z,40.10
2018-06-15T09:39:45.019Z,40.00
2018-06-15T09:44:48.009Z,39.13
2018-06-15T09:49:50.957Z,39.78
2018-06-15T09:54:53.993Z,40.82
2018-06-15T09:59:56.973Z,40.64
2018-06-15T10:05:00.035Z,40.43
2018-06-15T10:10:03.112Z,39.57
2018-06-15T10:15:06.105Z,38.96
2018-06-15T10:20:09.434Z,39.54
2018-06-15T10:25:12.463Z,38.68
2018-06-15T10:30:15.469Z,37.42
2018-06-15T10:35:18.486Z,34.82
2018-06-15T10:40:21.522Z,33.85
2018-06-15T10:45:24.522Z,34.71
2018-06-15T10:50:27.505Z,34.00
2018-06-15T10:55:30.510Z,34.63
2018-06-15T11:00:33.526Z,32.49
2018-06-15T11:05:36.534Z,32.77
2018-06-15T11:10:39.557Z,35.21
2018-06-15T11:15:42.643Z,34.04
2018-06-15T11:20:45.645Z,32.35
2018-06-15T11:25:48.677Z,30.36
2018-06-15T11:30:51.736Z,30.68
2018-06-15T11:35:54.747Z,31.00
2018-06-15T11:40:57.785Z,30.60
2018-06-15T11:46:00.750Z,30.27
2018-06-15T11:51:03.758Z,33.76
2018-06-15T11:56:06.786Z,33.50
2018-06-15T12:01:09.815Z,32.83
2018-06-15T12:06:12.833Z,32.79
2018-06-15T12:11:15.840Z,30.66
2018-06-15T12:16:18.833Z,30.17
2018-06-15T12:21:21.835Z,29.79
2018-06-15T12:26:25.029Z,29.47
2018-06-15T12:31:28.157Z,30.24
2018-06-15T12:36:31.166Z,31.18
2018-06-15T12:41:34.161Z,31.56
2018-06-15T12:46:37.177Z,31.59
2018-06-15T12:51:40.162Z,31.99
2018-06-15T12:56:43.177Z,32.96
2018-06-15T13:01:46.180Z,32.18
2018-06-15T13:06:49.174Z,31.50
2018-06-15T13:11:52.207Z,31.81
2018-06-15T13:16:55.198Z,31.61
2018-06-15T13:21:58.182Z,30.78
2018-06-15T13:27:01.346Z,28.70
2018-06-15T13:32:04.374Z,28.49
2018-06-15T13:37:07.402Z,28.16
2018-06-15T13:42:10.389Z,27.98
2018-06-15T13:47:13.401Z,29.01
2018-06-15T13:52:16.397Z,29.38
2018-06-15T13:57:19.383Z,28.78
2018-06-15T14:02:22.361Z,26.89
2018-06-15T14:07:25.562Z,28.44
2018-06-15T14:12:28.602Z,27.29
2018-06-15T14:17:31.608Z,28.92
2018-06-15T14:22:34.582Z,28.40
2018-06-15T14:27:37.590Z,29.51
2018-06-15T14:32:40.603Z,28.33
2018-06-15T14:37:43.570Z,27.19
2018-06-15T14:42:46.585Z,27.10
2018-06-15T14:47:49.633Z,28.13
2018-06-15T14:52:52.642Z,27.80
2018-06-15T14:57:55.625Z,30.49
2018-06-15T15:02:58.597Z,31.60
2018-06-15T15:08:02.524Z,29.27
2018-06-15T15:13:05.523Z,29.22
2018-06-15T15:18:09.213Z,28.64
2018-06-15T15:23:12.934Z,28.44
2018-06-15T15:28:16.039Z,28.75
2018-06-15T15:33:19.098Z,28.60
2018-06-15T15:38:22.179Z,29.00
2018-06-15T15:43:25.220Z,28.16
2018-06-15T15:48:28.226Z,29.50
2018-06-15T15:53:31.222Z,30.16
2018-06-15T15:58:34.304Z,30.14
2018-06-15T16:03:37.321Z,30.88
2018-06-15T16:08:40.310Z,30.65
2018-06-15T16:13:43.349Z,30.28
2018-06-15T16:18:48.289Z,29.75
2018-06-15T16:23:51.365Z,30.12
2018-06-15T16:28:54.394Z,30.84
2018-06-15T16:33:57.427Z,32.13
2018-06-15T16:39:00.434Z,30.35
2018-06-15T16:44:03.475Z,31.31
2018-06-15T16:49:06.559Z,32.59
2018-06-15T16:54:09.558Z,32.22
2018-06-15T16:59:12.642Z,32.58
2018-06-15T17:04:15.650Z,32.34
2018-06-15T17:09:18.654Z,32.09
2018-06-15T17:14:21.641Z,32.68
2018-06-15T17:19:24.741Z,34.01
2018-06-15T17:24:27.687Z,33.80
2018-06-15T17:29:30.753Z,34.83
2018-06-15T17:34:33.745Z,36.06
2018-06-15T17:39:37.326Z,36.27
2018-06-15T17:44:40.430Z,35.95
2018-06-15T17:49:43.410Z,36.92
2018-06-15T17:54:46.492Z,37.86
2018-06-15T17:59:49.550Z,37.50
2018-06-15T18:04:52.549Z,38.22
2018-06-15T18:09:55.621Z,38.51
2018-06-15T18:14:58.671Z,39.54
2018-06-15T18:20:01.718Z,39.92
2018-06-15T18:25:05.094Z,41.07
2018-06-15T18:30:08.264Z,41.73
2018-06-15T18:35:11.310Z,41.33
2018-06-15T18:40:14.301Z,41.80
2018-06-15T18:45:17.298Z,42.62
2018-06-15T18:50:20.416Z,43.16
2018-06-15T18:55:23.596Z,43.28
2018-06-15T19:00:26.739Z,44.44
2018-06-15T19:05:29.786Z,45.04
2018-06-15T19:10:32.814Z,45.93
2018-06-15T19:15:35.872Z,46.66
2018-06-15T19:20:38.909Z,46.37
2018-06-15T19:25:41.987Z,46.83
2018-06-15T19:30:45.059Z,47.80
2018-06-15T19:35:48.392Z,48.50
2018-06-15T19:40:51.406Z,48.48
2018-06-15T19:45:54.398Z,48.73
2018-06-15T19:50:57.385Z,48.92
2018-06-15T19:56:00.393Z,49.38
2018-06-15T20:01:04.633Z,49.95
2018-06-15T20:06:09.293Z,50.24
2018-06-15T20:11:13.676Z,50.56
2018-06-15T20:16:17.704Z,51.11
2018-06-15T20:21:21.966Z,50.95
2018-06-15T20:26:26.037Z,51.91
2018-06-15T20:31:30.094Z,52.54
2018-06-15T20:36:35.093Z,52.95
2018-06-15T20:41:39.776Z,53.38
2018-06-15T20:46:43.777Z,53.69
2018-06-15T20:51:48.136Z,53.45
2018-06-15T20:56:52.338Z,54.15
2018-06-15T21:01:55.745Z,54.59
2018-06-15T21:06:59.810Z,55.01
2018-06-15T21:12:03.940Z,54.84
2018-06-15T21:17:08.312Z,55.06
2018-06-15T21:22:12.371Z,55.40
2018-06-15T21:27:16.335Z,55.75
2018-06-15T21:37:23.066Z,56.44
2018-06-15T21:42:27.698Z,56.38
2018-06-15T21:47:33.564Z,56.73
2018-06-15T21:52:37.126Z,57.27
2018-06-15T21:57:41.152Z,57.29
2018-06-15T22:02:45.710Z,56.91
2018-06-15T22:07:50.561Z,57.37
2018-06-15T22:12:54.831Z,57.28
2018-06-15T22:17:57.941Z,57.76
2018-06-15T22:23:00.994Z,57.96
2018-06-15T22:28:04.000Z,58.67
2018-06-15T22:33:07.070Z,58.34
2018-06-15T22:38:10.129Z,58.58
2018-06-15T22:43:13.151Z,58.84
2018-06-15T22:48:16.205Z,58.87
2018-06-15T22:53:19.201Z,58.50
2018-06-15T22:58:22.259Z,59.02
2018-06-15T23:03:25.285Z,59.15
2018-06-15T23:08:28.294Z,58.91
2018-06-15T23:13:31.330Z,59.45
2018-06-15T23:18:34.363Z,59.57
2018-06-15T23:23:37.368Z,59.88
2018-06-15T23:28:40.415Z,60.42
2018-06-15T23:33:43.423Z,60.87
2018-06-15T23:38:46.410Z,60.78
2018-06-15T23:43:49.441Z,60.38
2018-06-15T23:48:52.450Z,59.28
2018-06-15T23:53:55.489Z,59.42
2018-06-15T23:58:58.526Z,59.08
